sensor_id;sensor_type;location;lat;lon;timestamp;P1;durP1;ratioP1;P2;durP2;ratioP2
77220;SDS011;66217;50.004;8.266;2023-07-22T00:01:12;4.75;;;3.35;;
77220;SDS011;66217;50.004;8.266;2023-07-22T00:03:38;4.78;;;2.90;;
77220;SDS011;66217;50.004;8.266;2023-07-22T00:06:04;4.43;;;3.30;;
77220;SDS011;66217;50.004;8.266;2023-07-22T00:10:59;4.60;;;3.03;;
77220;SDS011;66217;50.004;8.266;2023-07-22T00:13:25;5.35;;;3.30;;
77220;SDS011;66217;50.004;8.266;2023-07-22T00:15:53;5.47;;;3.53;;
77220;SDS011;66217;50.004;8.266;2023-07-22T00:18:19;3.75;;;3.10;;
77220;SDS011;66217;50.004;8.266;2023-07-22T00:20:44;6.35;;;3.53;;
77220;SDS011;66217;50.004;8.266;2023-07-22T00:23:10;11.20;;;3.97;;
77220;SDS011;66217;50.004;8.266;2023-07-22T00:25:35;4.90;;;3.58;;
77220;SDS011;66217;50.004;8.266;2023-07-22T00:28:01;8.38;;;3.50;;
77220;SDS011;66217;50.004;8.266;2023-07-22T00:30:26;7.22;;;2.97;;
77220;SDS011;66217;50.004;8.266;2023-07-22T00:32:53;4.95;;;3.50;;
77220;SDS011;66217;50.004;8.266;2023-07-22T00:35:19;3.42;;;2.78;;
77220;SDS011;66217;50.004;8.266;2023-07-22T00:37:44;8.55;;;3.55;;
77220;SDS011;66217;50.004;8.266;2023-07-22T00:40:10;4.57;;;3.22;;
77220;SDS011;66217;50.004;8.266;2023-07-22T00:42:37;8.93;;;3.13;;
77220;SDS011;66217;50.004;8.266;2023-07-22T00:45:06;9.57;;;3.38;;
77220;SDS011;66217;50.004;8.266;2023-07-22T00:47:35;5.15;;;2.92;;
77220;SDS011;66217;50.004;8.266;2023-07-22T00:50:05;5.82;;;2.92;;
77220;SDS011;66217;50.004;8.266;2023-07-22T00:52:35;4.10;;;2.78;;
77220;SDS011;66217;50.004;8.266;2023-07-22T00:55:01;4.38;;;3.08;;
77220;SDS011;66217;50.004;8.266;2023-07-22T00:57:27;4.38;;;2.90;;
77220;SDS011;66217;50.004;8.266;2023-07-22T00:59:53;4.18;;;3.22;;
77220;SDS011;66217;50.004;8.266;2023-07-22T01:02:19;6.15;;;3.08;;
77220;SDS011;66217;50.004;8.266;2023-07-22T01:04:45;5.35;;;3.22;;
77220;SDS011;66217;50.004;8.266;2023-07-22T01:07:13;6.88;;;3.65;;
77220;SDS011;66217;50.004;8.266;2023-07-22T01:09:39;8.52;;;3.60;;
77220;SDS011;66217;50.004;8.266;2023-07-22T01:12:06;4.97;;;3.83;;
77220;SDS011;66217;50.004;8.266;2023-07-22T01:14:33;5.50;;;3.85;;
77220;SDS011;66217;50.004;8.266;2023-07-22T01:17:00;7.97;;;3.50;;
77220;SDS011;66217;50.004;8.266;2023-07-22T01:19:26;7.13;;;3.70;;
77220;SDS011;66217;50.004;8.266;2023-07-22T01:21:52;4.72;;;3.08;;
77220;SDS011;66217;50.004;8.266;2023-07-22T01:24:18;4.70;;;3.45;;
77220;SDS011;66217;50.004;8.266;2023-07-22T01:26:44;5.75;;;3.42;;
77220;SDS011;66217;50.004;8.266;2023-07-22T01:29:09;7.30;;;4.07;;
77220;SDS011;66217;50.004;8.266;2023-07-22T01:31:35;4.80;;;3.30;;
77220;SDS011;66217;50.004;8.266;2023-07-22T01:34:03;4.72;;;3.40;;
77220;SDS011;66217;50.004;8.266;2023-07-22T01:36:29;6.22;;;3.38;;
77220;SDS011;66217;50.004;8.266;2023-07-22T01:38:54;6.03;;;3.50;;
77220;SDS011;66217;50.004;8.266;2023-07-22T01:41:20;6.32;;;3.95;;
77220;SDS011;66217;50.004;8.266;2023-07-22T01:43:45;5.15;;;3.50;;
77220;SDS011;66217;50.004;8.266;2023-07-22T01:46:11;6.38;;;3.97;;
77220;SDS011;66217;50.004;8.266;2023-07-22T01:48:37;6.72;;;3.63;;
77220;SDS011;66217;50.004;8.266;2023-07-22T01:51:02;5.95;;;3.88;;
77220;SDS011;66217;50.004;8.266;2023-07-22T01:53:28;5.82;;;3.53;;
77220;SDS011;66217;50.004;8.266;2023-07-22T01:55:54;6.32;;;3.50;;
77220;SDS011;66217;50.004;8.266;2023-07-22T01:58:20;5.80;;;3.47;;
77220;SDS011;66217;50.004;8.266;2023-07-22T02:00:49;6.32;;;3.78;;
77220;SDS011;66217;50.004;8.266;2023-07-22T02:03:15;5.00;;;3.97;;
77220;SDS011;66217;50.004;8.266;2023-07-22T02:05:40;7.03;;;3.53;;
77220;SDS011;66217;50.004;8.266;2023-07-22T02:08:06;6.85;;;3.88;;
77220;SDS011;66217;50.004;8.266;2023-07-22T02:10:31;9.45;;;4.35;;
77220;SDS011;66217;50.004;8.266;2023-07-22T02:12:57;5.15;;;3.58;;
77220;SDS011;66217;50.004;8.266;2023-07-22T02:15:23;4.60;;;3.85;;
77220;SDS011;66217;50.004;8.266;2023-07-22T02:17:49;9.18;;;3.55;;
77220;SDS011;66217;50.004;8.266;2023-07-22T02:20:15;8.60;;;3.72;;
77220;SDS011;66217;50.004;8.266;2023-07-22T02:22:40;8.40;;;4.15;;
77220;SDS011;66217;50.004;8.266;2023-07-22T02:25:06;6.25;;;4.18;;
77220;SDS011;66217;50.004;8.266;2023-07-22T02:27:32;6.90;;;3.70;;
77220;SDS011;66217;50.004;8.266;2023-07-22T02:29:57;5.50;;;4.03;;
77220;SDS011;66217;50.004;8.266;2023-07-22T02:32:23;11.02;;;4.18;;
77220;SDS011;66217;50.004;8.266;2023-07-22T02:34:48;7.90;;;4.03;;
77220;SDS011;66217;50.004;8.266;2023-07-22T02:37:14;8.85;;;4.28;;
77220;SDS011;66217;50.004;8.266;2023-07-22T02:39:39;10.05;;;4.10;;
77220;SDS011;66217;50.004;8.266;2023-07-22T02:42:05;7.93;;;3.38;;
77220;SDS011;66217;50.004;8.266;2023-07-22T02:44:31;7.50;;;3.95;;
77220;SDS011;66217;50.004;8.266;2023-07-22T02:46:56;9.25;;;4.15;;
77220;SDS011;66217;50.004;8.266;2023-07-22T02:49:22;5.13;;;3.85;;
77220;SDS011;66217;50.004;8.266;2023-07-22T02:51:47;7.40;;;3.78;;
77220;SDS011;66217;50.004;8.266;2023-07-22T02:54:13;8.18;;;3.80;;
77220;SDS011;66217;50.004;8.266;2023-07-22T02:56:39;5.72;;;3.88;;
77220;SDS011;66217;50.004;8.266;2023-07-22T02:59:04;6.35;;;4.38;;
77220;SDS011;66217;50.004;8.266;2023-07-22T03:01:29;8.65;;;4.15;;
77220;SDS011;66217;50.004;8.266;2023-07-22T03:03:55;5.75;;;3.55;;
77220;SDS011;66217;50.004;8.266;2023-07-22T03:06:20;12.05;;;4.07;;
77220;SDS011;66217;50.004;8.266;2023-07-22T03:08:46;7.18;;;3.88;;
77220;SDS011;66217;50.004;8.266;2023-07-22T03:11:13;7.00;;;3.92;;
77220;SDS011;66217;50.004;8.266;2023-07-22T03:16:29;6.25;;;3.78;;
77220;SDS011;66217;50.004;8.266;2023-07-22T03:18:57;5.82;;;3.83;;
77220;SDS011;66217;50.004;8.266;2023-07-22T03:21:23;6.38;;;3.85;;
77220;SDS011;66217;50.004;8.266;2023-07-22T03:23:48;6.38;;;4.22;;
77220;SDS011;66217;50.004;8.266;2023-07-22T03:26:14;6.10;;;4.18;;
77220;SDS011;66217;50.004;8.266;2023-07-22T03:28:42;7.03;;;4.63;;
77220;SDS011;66217;50.004;8.266;2023-07-22T03:31:07;7.72;;;4.68;;
77220;SDS011;66217;50.004;8.266;2023-07-22T03:33:35;5.13;;;4.10;;
77220;SDS011;66217;50.004;8.266;2023-07-22T03:36:00;7.70;;;4.13;;
77220;SDS011;66217;50.004;8.266;2023-07-22T03:38:26;7.82;;;4.28;;
77220;SDS011;66217;50.004;8.266;2023-07-22T03:40:52;10.68;;;4.55;;
77220;SDS011;66217;50.004;8.266;2023-07-22T03:43:20;7.50;;;4.60;;
77220;SDS011;66217;50.004;8.266;2023-07-22T03:45:45;5.55;;;4.22;;
77220;SDS011;66217;50.004;8.266;2023-07-22T03:48:11;8.02;;;4.80;;
77220;SDS011;66217;50.004;8.266;2023-07-22T03:50:36;6.78;;;4.38;;
77220;SDS011;66217;50.004;8.266;2023-07-22T03:53:02;9.60;;;4.82;;
77220;SDS011;66217;50.004;8.266;2023-07-22T03:55:30;8.60;;;4.55;;
77220;SDS011;66217;50.004;8.266;2023-07-22T03:57:55;9.32;;;4.50;;
77220;SDS011;66217;50.004;8.266;2023-07-22T04:00:21;7.53;;;4.97;;
77220;SDS011;66217;50.004;8.266;2023-07-22T04:02:47;8.18;;;4.63;;
77220;SDS011;66217;50.004;8.266;2023-07-22T04:05:12;10.23;;;5.15;;
77220;SDS011;66217;50.004;8.266;2023-07-22T04:07:38;8.77;;;5.53;;
77220;SDS011;66217;50.004;8.266;2023-07-22T04:10:04;10.32;;;4.88;;
77220;SDS011;66217;50.004;8.266;2023-07-22T04:12:31;9.20;;;4.90;;
77220;SDS011;66217;50.004;8.266;2023-07-22T04:14:56;8.85;;;4.85;;
77220;SDS011;66217;50.004;8.266;2023-07-22T04:17:22;8.07;;;5.28;;
77220;SDS011;66217;50.004;8.266;2023-07-22T04:19:47;12.73;;;5.45;;
77220;SDS011;66217;50.004;8.266;2023-07-22T04:22:13;11.48;;;6.20;;
77220;SDS011;66217;50.004;8.266;2023-07-22T04:24:38;10.88;;;5.18;;
77220;SDS011;66217;50.004;8.266;2023-07-22T04:27:04;17.60;;;5.57;;
77220;SDS011;66217;50.004;8.266;2023-07-22T04:29:29;9.38;;;5.53;;
77220;SDS011;66217;50.004;8.266;2023-07-22T04:31:59;10.07;;;5.18;;
77220;SDS011;66217;50.004;8.266;2023-07-22T04:34:31;12.80;;;5.00;;
77220;SDS011;66217;50.004;8.266;2023-07-22T04:36:57;10.90;;;4.72;;
77220;SDS011;66217;50.004;8.266;2023-07-22T04:39:23;11.45;;;5.15;;
77220;SDS011;66217;50.004;8.266;2023-07-22T04:41:48;9.15;;;5.10;;
77220;SDS011;66217;50.004;8.266;2023-07-22T04:44:14;8.50;;;4.82;;
77220;SDS011;66217;50.004;8.266;2023-07-22T04:46:39;9.35;;;4.82;;
77220;SDS011;66217;50.004;8.266;2023-07-22T04:49:05;6.45;;;4.57;;
77220;SDS011;66217;50.004;8.266;2023-07-22T04:51:31;8.10;;;5.35;;
77220;SDS011;66217;50.004;8.266;2023-07-22T04:53:57;11.73;;;5.18;;
77220;SDS011;66217;50.004;8.266;2023-07-22T04:56:22;9.13;;;5.32;;
77220;SDS011;66217;50.004;8.266;2023-07-22T04:58:47;11.93;;;4.95;;
77220;SDS011;66217;50.004;8.266;2023-07-22T05:01:14;8.80;;;5.68;;
77220;SDS011;66217;50.004;8.266;2023-07-22T05:03:40;13.02;;;5.15;;
77220;SDS011;66217;50.004;8.266;2023-07-22T05:06:05;9.57;;;5.07;;
77220;SDS011;66217;50.004;8.266;2023-07-22T05:08:31;7.40;;;5.47;;
77220;SDS011;66217;50.004;8.266;2023-07-22T05:10:56;8.40;;;4.72;;
77220;SDS011;66217;50.004;8.266;2023-07-22T05:13:22;10.65;;;5.25;;
77220;SDS011;66217;50.004;8.266;2023-07-22T05:15:47;8.57;;;5.28;;
77220;SDS011;66217;50.004;8.266;2023-07-22T05:18:13;8.77;;;5.43;;
77220;SDS011;66217;50.004;8.266;2023-07-22T05:20:38;8.00;;;5.13;;
77220;SDS011;66217;50.004;8.266;2023-07-22T05:23:04;8.95;;;5.53;;
77220;SDS011;66217;50.004;8.266;2023-07-22T05:25:30;11.68;;;5.70;;
77220;SDS011;66217;50.004;8.266;2023-07-22T05:27:55;10.75;;;6.22;;
77220;SDS011;66217;50.004;8.266;2023-07-22T05:30:20;12.32;;;6.40;;
77220;SDS011;66217;50.004;8.266;2023-07-22T05:32:46;13.70;;;6.78;;
77220;SDS011;66217;50.004;8.266;2023-07-22T05:35:11;10.35;;;5.90;;
77220;SDS011;66217;50.004;8.266;2023-07-22T05:37:37;19.52;;;6.55;;
77220;SDS011;66217;50.004;8.266;2023-07-22T05:40:02;10.85;;;5.90;;
77220;SDS011;66217;50.004;8.266;2023-07-22T05:42:28;12.63;;;5.95;;
77220;SDS011;66217;50.004;8.266;2023-07-22T05:44:54;7.90;;;5.00;;
77220;SDS011;66217;50.004;8.266;2023-07-22T05:47:19;11.50;;;5.35;;
77220;SDS011;66217;50.004;8.266;2023-07-22T05:49:45;9.57;;;5.15;;
77220;SDS011;66217;50.004;8.266;2023-07-22T05:52:10;8.82;;;5.15;;
77220;SDS011;66217;50.004;8.266;2023-07-22T05:54:36;7.78;;;4.80;;
77220;SDS011;66217;50.004;8.266;2023-07-22T05:57:01;16.55;;;5.70;;
77220;SDS011;66217;50.004;8.266;2023-07-22T05:59:29;12.30;;;6.18;;
77220;SDS011;66217;50.004;8.266;2023-07-22T06:01:55;7.85;;;4.68;;
77220;SDS011;66217;50.004;8.266;2023-07-22T06:04:20;16.20;;;6.18;;
77220;SDS011;66217;50.004;8.266;2023-07-22T06:06:45;12.15;;;6.22;;
77220;SDS011;66217;50.004;8.266;2023-07-22T06:09:11;10.63;;;5.97;;
77220;SDS011;66217;50.004;8.266;2023-07-22T06:11:39;8.52;;;5.18;;
77220;SDS011;66217;50.004;8.266;2023-07-22T06:14:04;11.48;;;5.35;;
77220;SDS011;66217;50.004;8.266;2023-07-22T06:16:30;10.68;;;5.15;;
77220;SDS011;66217;50.004;8.266;2023-07-22T06:18:55;9.45;;;4.95;;
77220;SDS011;66217;50.004;8.266;2023-07-22T06:21:21;9.65;;;4.55;;
77220;SDS011;66217;50.004;8.266;2023-07-22T06:23:46;13.05;;;5.50;;
77220;SDS011;66217;50.004;8.266;2023-07-22T06:26:11;11.00;;;4.85;;
77220;SDS011;66217;50.004;8.266;2023-07-22T06:28:37;14.68;;;4.93;;
77220;SDS011;66217;50.004;8.266;2023-07-22T06:31:02;9.52;;;5.78;;
77220;SDS011;66217;50.004;8.266;2023-07-22T06:33:28;18.17;;;5.20;;
77220;SDS011;66217;50.004;8.266;2023-07-22T06:35:53;11.60;;;5.30;;
77220;SDS011;66217;50.004;8.266;2023-07-22T06:38:18;11.18;;;5.45;;
77220;SDS011;66217;50.004;8.266;2023-07-22T06:40:44;10.77;;;5.25;;
77220;SDS011;66217;50.004;8.266;2023-07-22T06:43:09;10.23;;;4.78;;
77220;SDS011;66217;50.004;8.266;2023-07-22T06:45:35;17.65;;;5.68;;
77220;SDS011;66217;50.004;8.266;2023-07-22T06:48:01;13.23;;;5.63;;
77220;SDS011;66217;50.004;8.266;2023-07-22T06:50:28;13.07;;;5.47;;
77220;SDS011;66217;50.004;8.266;2023-07-22T06:52:53;12.43;;;5.15;;
77220;SDS011;66217;50.004;8.266;2023-07-22T06:55:19;8.95;;;4.50;;
77220;SDS011;66217;50.004;8.266;2023-07-22T06:57:44;9.52;;;5.55;;
77220;SDS011;66217;50.004;8.266;2023-07-22T07:00:10;11.02;;;5.70;;
77220;SDS011;66217;50.004;8.266;2023-07-22T07:02:36;17.40;;;5.28;;
77220;SDS011;66217;50.004;8.266;2023-07-22T07:05:01;17.63;;;5.57;;
77220;SDS011;66217;50.004;8.266;2023-07-22T07:07:27;11.38;;;5.70;;
77220;SDS011;66217;50.004;8.266;2023-07-22T07:09:52;13.98;;;5.88;;
77220;SDS011;66217;50.004;8.266;2023-07-22T07:12:18;10.85;;;5.43;;
77220;SDS011;66217;50.004;8.266;2023-07-22T07:14:43;10.60;;;5.72;;
77220;SDS011;66217;50.004;8.266;2023-07-22T07:17:09;14.55;;;5.35;;
77220;SDS011;66217;50.004;8.266;2023-07-22T07:19:34;16.40;;;5.32;;
77220;SDS011;66217;50.004;8.266;2023-07-22T07:21:59;8.98;;;5.15;;
77220;SDS011;66217;50.004;8.266;2023-07-22T07:24:26;10.10;;;5.45;;
77220;SDS011;66217;50.004;8.266;2023-07-22T07:26:52;19.77;;;5.93;;
77220;SDS011;66217;50.004;8.266;2023-07-22T07:29:17;10.45;;;4.95;;
77220;SDS011;66217;50.004;8.266;2023-07-22T07:31:43;8.68;;;5.32;;
77220;SDS011;66217;50.004;8.266;2023-07-22T07:34:08;14.43;;;5.80;;
77220;SDS011;66217;50.004;8.266;2023-07-22T07:36:34;10.60;;;4.80;;
77220;SDS011;66217;50.004;8.266;2023-07-22T07:38:59;12.45;;;5.03;;
77220;SDS011;66217;50.004;8.266;2023-07-22T07:41:25;11.38;;;5.50;;
77220;SDS011;66217;50.004;8.266;2023-07-22T07:43:50;12.27;;;5.68;;
77220;SDS011;66217;50.004;8.266;2023-07-22T07:46:22;10.48;;;5.70;;
77220;SDS011;66217;50.004;8.266;2023-07-22T07:48:50;12.98;;;5.55;;
77220;SDS011;66217;50.004;8.266;2023-07-22T07:51:17;8.80;;;4.90;;
77220;SDS011;66217;50.004;8.266;2023-07-22T07:53:44;13.73;;;5.60;;
77220;SDS011;66217;50.004;8.266;2023-07-22T07:56:10;15.95;;;5.05;;
77220;SDS011;66217;50.004;8.266;2023-07-22T07:58:36;11.32;;;5.57;;
77220;SDS011;66217;50.004;8.266;2023-07-22T08:01:02;22.00;;;4.95;;
77220;SDS011;66217;50.004;8.266;2023-07-22T08:03:28;11.63;;;5.28;;
77220;SDS011;66217;50.004;8.266;2023-07-22T08:05:54;14.77;;;5.32;;
77220;SDS011;66217;50.004;8.266;2023-07-22T08:08:19;17.35;;;5.97;;
77220;SDS011;66217;50.004;8.266;2023-07-22T08:10:46;17.45;;;5.50;;
77220;SDS011;66217;50.004;8.266;2023-07-22T08:13:11;15.18;;;5.40;;
77220;SDS011;66217;50.004;8.266;2023-07-22T08:15:36;18.65;;;5.70;;
77220;SDS011;66217;50.004;8.266;2023-07-22T08:18:02;8.43;;;4.70;;
77220;SDS011;66217;50.004;8.266;2023-07-22T08:20:29;5.85;;;4.38;;
77220;SDS011;66217;50.004;8.266;2023-07-22T08:22:55;12.27;;;4.10;;
77220;SDS011;66217;50.004;8.266;2023-07-22T08:25:21;7.20;;;4.10;;
77220;SDS011;66217;50.004;8.266;2023-07-22T08:27:46;10.75;;;4.13;;
77220;SDS011;66217;50.004;8.266;2023-07-22T08:30:11;8.55;;;4.10;;
77220;SDS011;66217;50.004;8.266;2023-07-22T08:32:37;12.60;;;4.47;;
77220;SDS011;66217;50.004;8.266;2023-07-22T08:35:02;6.32;;;4.53;;
77220;SDS011;66217;50.004;8.266;2023-07-22T08:37:28;7.40;;;4.65;;
77220;SDS011;66217;50.004;8.266;2023-07-22T08:39:53;7.43;;;3.80;;
77220;SDS011;66217;50.004;8.266;2023-07-22T08:42:19;7.88;;;4.10;;
77220;SDS011;66217;50.004;8.266;2023-07-22T08:44:46;10.80;;;4.60;;
77220;SDS011;66217;50.004;8.266;2023-07-22T08:47:14;6.35;;;3.83;;
77220;SDS011;66217;50.004;8.266;2023-07-22T08:49:42;18.83;;;3.60;;
77220;SDS011;66217;50.004;8.266;2023-07-22T08:52:12;13.50;;;4.30;;
77220;SDS011;66217;50.004;8.266;2023-07-22T08:54:39;4.65;;;3.15;;
77220;SDS011;66217;50.004;8.266;2023-07-22T08:57:05;10.00;;;4.05;;
77220;SDS011;66217;50.004;8.266;2023-07-22T08:59:32;6.22;;;3.33;;
77220;SDS011;66217;50.004;8.266;2023-07-22T09:01:57;6.05;;;3.58;;
77220;SDS011;66217;50.004;8.266;2023-07-22T09:04:23;6.60;;;4.32;;
77220;SDS011;66217;50.004;8.266;2023-07-22T09:06:49;4.43;;;3.38;;
77220;SDS011;66217;50.004;8.266;2023-07-22T09:09:14;13.90;;;3.35;;
77220;SDS011;66217;50.004;8.266;2023-07-22T09:11:40;6.15;;;3.78;;
77220;SDS011;66217;50.004;8.266;2023-07-22T09:14:06;8.50;;;3.25;;
77220;SDS011;66217;50.004;8.266;2023-07-22T09:16:32;16.05;;;3.80;;
77220;SDS011;66217;50.004;8.266;2023-07-22T09:18:58;5.00;;;3.28;;
77220;SDS011;66217;50.004;8.266;2023-07-22T09:21:23;6.43;;;4.15;;
77220;SDS011;66217;50.004;8.266;2023-07-22T09:23:49;7.40;;;3.65;;
77220;SDS011;66217;50.004;8.266;2023-07-22T09:26:15;10.63;;;3.60;;
77220;SDS011;66217;50.004;8.266;2023-07-22T09:31:14;13.55;;;3.40;;
77220;SDS011;66217;50.004;8.266;2023-07-22T09:33:39;5.78;;;3.17;;
77220;SDS011;66217;50.004;8.266;2023-07-22T09:36:05;31.08;;;4.30;;
77220;SDS011;66217;50.004;8.266;2023-07-22T09:38:30;6.22;;;2.97;;
77220;SDS011;66217;50.004;8.266;2023-07-22T09:40:56;6.55;;;3.42;;
77220;SDS011;66217;50.004;8.266;2023-07-22T09:43:22;8.32;;;3.53;;
77220;SDS011;66217;50.004;8.266;2023-07-22T09:45:48;5.95;;;3.10;;
77220;SDS011;66217;50.004;8.266;2023-07-22T09:48:14;6.13;;;3.35;;
77220;SDS011;66217;50.004;8.266;2023-07-22T09:50:40;5.88;;;3.50;;
77220;SDS011;66217;50.004;8.266;2023-07-22T09:53:06;8.00;;;3.28;;
77220;SDS011;66217;50.004;8.266;2023-07-22T09:55:32;6.78;;;3.50;;
77220;SDS011;66217;50.004;8.266;2023-07-22T09:57:59;5.60;;;3.35;;
77220;SDS011;66217;50.004;8.266;2023-07-22T10:00:29;7.03;;;3.92;;
77220;SDS011;66217;50.004;8.266;2023-07-22T10:02:56;6.47;;;3.88;;
77220;SDS011;66217;50.004;8.266;2023-07-22T10:05:24;4.45;;;3.40;;
77220;SDS011;66217;50.004;8.266;2023-07-22T10:07:51;8.63;;;3.70;;
77220;SDS011;66217;50.004;8.266;2023-07-22T10:10:19;5.45;;;3.50;;
77220;SDS011;66217;50.004;8.266;2023-07-22T10:12:46;8.25;;;3.22;;
77220;SDS011;66217;50.004;8.266;2023-07-22T10:15:12;6.13;;;3.60;;
77220;SDS011;66217;50.004;8.266;2023-07-22T10:17:40;9.77;;;3.45;;
77220;SDS011;66217;50.004;8.266;2023-07-22T10:20:10;8.38;;;4.28;;
77220;SDS011;66217;50.004;8.266;2023-07-22T10:22:43;5.80;;;3.70;;
77220;SDS011;66217;50.004;8.266;2023-07-22T10:25:14;6.35;;;3.42;;
77220;SDS011;66217;50.004;8.266;2023-07-22T10:27:40;5.55;;;3.60;;
77220;SDS011;66217;50.004;8.266;2023-07-22T10:30:07;4.15;;;3.08;;
77220;SDS011;66217;50.004;8.266;2023-07-22T10:32:37;5.55;;;3.35;;
77220;SDS011;66217;50.004;8.266;2023-07-22T10:35:04;4.65;;;3.53;;
77220;SDS011;66217;50.004;8.266;2023-07-22T10:37:31;6.18;;;3.42;;
77220;SDS011;66217;50.004;8.266;2023-07-22T10:40:15;13.05;;;3.58;;
77220;SDS011;66217;50.004;8.266;2023-07-22T10:42:53;8.15;;;3.50;;
77220;SDS011;66217;50.004;8.266;2023-07-22T10:45:23;6.53;;;3.83;;
77220;SDS011;66217;50.004;8.266;2023-07-22T10:48:02;5.50;;;3.20;;
77220;SDS011;66217;50.004;8.266;2023-07-22T10:50:40;12.52;;;3.90;;
77220;SDS011;66217;50.004;8.266;2023-07-22T10:53:28;10.85;;;3.58;;
77220;SDS011;66217;50.004;8.266;2023-07-22T10:58:31;6.15;;;4.13;;
77220;SDS011;66217;50.004;8.266;2023-07-22T11:01:20;7.85;;;4.13;;
77220;SDS011;66217;50.004;8.266;2023-07-22T11:06:32;6.65;;;3.60;;
77220;SDS011;66217;50.004;8.266;2023-07-22T11:08:58;6.25;;;3.40;;
77220;SDS011;66217;50.004;8.266;2023-07-22T11:11:36;7.35;;;3.40;;
77220;SDS011;66217;50.004;8.266;2023-07-22T11:14:21;6.47;;;3.25;;
77220;SDS011;66217;50.004;8.266;2023-07-22T11:16:47;8.30;;;3.50;;
77220;SDS011;66217;50.004;8.266;2023-07-22T11:19:14;6.72;;;3.28;;
77220;SDS011;66217;50.004;8.266;2023-07-22T11:21:40;7.45;;;3.38;;
77220;SDS011;66217;50.004;8.266;2023-07-22T11:24:06;7.55;;;3.17;;
77220;SDS011;66217;50.004;8.266;2023-07-22T11:26:32;7.20;;;4.95;;
77220;SDS011;66217;50.004;8.266;2023-07-22T11:29:02;15.30;;;7.25;;
77220;SDS011;66217;50.004;8.266;2023-07-22T11:34:07;5.80;;;4.05;;
77220;SDS011;66217;50.004;8.266;2023-07-22T11:36:33;6.03;;;3.47;;
77220;SDS011;66217;50.004;8.266;2023-07-22T11:39:04;6.22;;;4.00;;
77220;SDS011;66217;50.004;8.266;2023-07-22T11:41:34;3.83;;;3.20;;
77220;SDS011;66217;50.004;8.266;2023-07-22T11:44:00;4.93;;;3.13;;
77220;SDS011;66217;50.004;8.266;2023-07-22T11:46:27;4.72;;;3.25;;
77220;SDS011;66217;50.004;8.266;2023-07-22T11:48:52;5.78;;;3.22;;
77220;SDS011;66217;50.004;8.266;2023-07-22T11:51:22;8.32;;;3.80;;
77220;SDS011;66217;50.004;8.266;2023-07-22T11:53:49;7.35;;;3.47;;
77220;SDS011;66217;50.004;8.266;2023-07-22T11:56:22;5.97;;;3.15;;
77220;SDS011;66217;50.004;8.266;2023-07-22T11:58:50;7.47;;;3.88;;
77220;SDS011;66217;50.004;8.266;2023-07-22T12:01:16;6.60;;;3.55;;
77220;SDS011;66217;50.004;8.266;2023-07-22T12:03:41;8.15;;;3.55;;
77220;SDS011;66217;50.004;8.266;2023-07-22T12:06:07;6.43;;;3.58;;
77220;SDS011;66217;50.004;8.266;2023-07-22T12:08:33;5.65;;;3.70;;
77220;SDS011;66217;50.004;8.266;2023-07-22T12:10:59;7.78;;;3.67;;
77220;SDS011;66217;50.004;8.266;2023-07-22T12:13:25;5.18;;;3.42;;
77220;SDS011;66217;50.004;8.266;2023-07-22T12:16:03;8.70;;;4.30;;
77220;SDS011;66217;50.004;8.266;2023-07-22T12:18:42;7.13;;;3.40;;
77220;SDS011;66217;50.004;8.266;2023-07-22T12:21:08;6.25;;;3.50;;
77220;SDS011;66217;50.004;8.266;2023-07-22T12:23:34;5.72;;;3.40;;
77220;SDS011;66217;50.004;8.266;2023-07-22T12:26:01;4.82;;;3.03;;
77220;SDS011;66217;50.004;8.266;2023-07-22T12:28:26;5.38;;;3.55;;
77220;SDS011;66217;50.004;8.266;2023-07-22T12:30:51;5.28;;;3.28;;
77220;SDS011;66217;50.004;8.266;2023-07-22T12:33:17;8.32;;;4.35;;
77220;SDS011;66217;50.004;8.266;2023-07-22T12:35:42;7.05;;;3.75;;
77220;SDS011;66217;50.004;8.266;2023-07-22T12:38:08;8.82;;;3.40;;
77220;SDS011;66217;50.004;8.266;2023-07-22T12:40:33;4.97;;;3.33;;
77220;SDS011;66217;50.004;8.266;2023-07-22T12:42:59;6.57;;;3.40;;
77220;SDS011;66217;50.004;8.266;2023-07-22T12:45:24;6.30;;;3.45;;
77220;SDS011;66217;50.004;8.266;2023-07-22T12:47:49;7.00;;;3.78;;
77220;SDS011;66217;50.004;8.266;2023-07-22T12:50:15;6.30;;;3.78;;
77220;SDS011;66217;50.004;8.266;2023-07-22T12:52:40;6.07;;;3.53;;
77220;SDS011;66217;50.004;8.266;2023-07-22T12:55:06;6.75;;;3.33;;
77220;SDS011;66217;50.004;8.266;2023-07-22T12:57:31;8.63;;;3.55;;
77220;SDS011;66217;50.004;8.266;2023-07-22T12:59:57;5.57;;;3.75;;
77220;SDS011;66217;50.004;8.266;2023-07-22T13:02:22;4.88;;;3.28;;
77220;SDS011;66217;50.004;8.266;2023-07-22T13:04:48;6.45;;;3.45;;
77220;SDS011;66217;50.004;8.266;2023-07-22T13:07:13;6.28;;;3.58;;
77220;SDS011;66217;50.004;8.266;2023-07-22T13:09:39;9.80;;;3.20;;
77220;SDS011;66217;50.004;8.266;2023-07-22T13:12:05;4.65;;;3.42;;
77220;SDS011;66217;50.004;8.266;2023-07-22T13:14:31;7.18;;;3.70;;
77220;SDS011;66217;50.004;8.266;2023-07-22T13:16:56;6.72;;;3.58;;
77220;SDS011;66217;50.004;8.266;2023-07-22T13:19:22;5.32;;;3.30;;
77220;SDS011;66217;50.004;8.266;2023-07-22T13:21:47;5.93;;;3.22;;
77220;SDS011;66217;50.004;8.266;2023-07-22T13:24:13;7.35;;;3.38;;
77220;SDS011;66217;50.004;8.266;2023-07-22T13:26:39;5.00;;;3.20;;
77220;SDS011;66217;50.004;8.266;2023-07-22T13:29:04;5.47;;;3.38;;
77220;SDS011;66217;50.004;8.266;2023-07-22T13:31:30;7.03;;;3.30;;
77220;SDS011;66217;50.004;8.266;2023-07-22T13:33:55;5.20;;;3.10;;
77220;SDS011;66217;50.004;8.266;2023-07-22T13:36:20;6.25;;;3.20;;
77220;SDS011;66217;50.004;8.266;2023-07-22T13:38:46;5.70;;;2.80;;
77220;SDS011;66217;50.004;8.266;2023-07-22T13:41:12;6.82;;;3.28;;
77220;SDS011;66217;50.004;8.266;2023-07-22T13:43:37;5.75;;;3.28;;
77220;SDS011;66217;50.004;8.266;2023-07-22T13:46:03;6.38;;;2.88;;
77220;SDS011;66217;50.004;8.266;2023-07-22T13:48:28;7.20;;;3.50;;
77220;SDS011;66217;50.004;8.266;2023-07-22T13:50:54;5.65;;;2.90;;
77220;SDS011;66217;50.004;8.266;2023-07-22T13:53:19;5.38;;;3.05;;
77220;SDS011;66217;50.004;8.266;2023-07-22T13:55:44;6.63;;;3.42;;
77220;SDS011;66217;50.004;8.266;2023-07-22T13:58:10;4.32;;;2.92;;
77220;SDS011;66217;50.004;8.266;2023-07-22T14:00:35;5.68;;;3.28;;
77220;SDS011;66217;50.004;8.266;2023-07-22T14:03:01;6.20;;;3.10;;
77220;SDS011;66217;50.004;8.266;2023-07-22T14:05:26;7.05;;;3.35;;
77220;SDS011;66217;50.004;8.266;2023-07-22T14:07:51;5.80;;;3.30;;
77220;SDS011;66217;50.004;8.266;2023-07-22T14:10:17;4.80;;;3.20;;
77220;SDS011;66217;50.004;8.266;2023-07-22T14:12:43;5.78;;;3.60;;
77220;SDS011;66217;50.004;8.266;2023-07-22T14:15:08;6.07;;;2.83;;
77220;SDS011;66217;50.004;8.266;2023-07-22T14:17:35;4.97;;;3.47;;
77220;SDS011;66217;50.004;8.266;2023-07-22T14:20:03;6.68;;;4.00;;
77220;SDS011;66217;50.004;8.266;2023-07-22T14:22:30;4.88;;;2.80;;
77220;SDS011;66217;50.004;8.266;2023-07-22T14:24:55;6.50;;;2.80;;
77220;SDS011;66217;50.004;8.266;2023-07-22T14:27:21;5.93;;;3.40;;
77220;SDS011;66217;50.004;8.266;2023-07-22T14:29:46;11.15;;;3.08;;
77220;SDS011;66217;50.004;8.266;2023-07-22T14:32:12;4.43;;;2.90;;
77220;SDS011;66217;50.004;8.266;2023-07-22T14:34:37;5.78;;;3.50;;
77220;SDS011;66217;50.004;8.266;2023-07-22T14:37:03;8.35;;;3.35;;
77220;SDS011;66217;50.004;8.266;2023-07-22T14:39:29;3.97;;;3.30;;
77220;SDS011;66217;50.004;8.266;2023-07-22T14:41:55;6.25;;;3.25;;
77220;SDS011;66217;50.004;8.266;2023-07-22T14:44:20;5.75;;;3.05;;
77220;SDS011;66217;50.004;8.266;2023-07-22T14:46:46;5.95;;;3.92;;
77220;SDS011;66217;50.004;8.266;2023-07-22T14:49:12;5.22;;;3.65;;
77220;SDS011;66217;50.004;8.266;2023-07-22T14:51:37;5.60;;;3.25;;
77220;SDS011;66217;50.004;8.266;2023-07-22T14:54:03;7.85;;;3.50;;